MKJP/KIN METAR and TAF weather

Enter ICAO airport designator
Station Type Date Time Source
MKJP METAR 2019/04/23 04:00 UTC NOAA

MKJP 230400Z 34005KT 9999 FEW022 26/20 Q1014


Station Type Date Time Source
MKJP Decoded METAR 2019/04/23 04:00 UTC NOAA

Kingston / Norman Manley, Jamaica (MKJP) 17-56N 076-47W 14M
Apr 23, 2019 - 12:00 AM EDT / 2019.04.23 0400 UTC
Wind: from the NNW (340 degrees) at 6 MPH (5 KT):0
Visibility: greater than 7 mile(s):0
Sky conditions: mostly clear
Temperature: 78 F (26 C)
Dew Point: 68 F (20 C)
Relative Humidity: 69%
Pressure (altimeter): 29.94 in. Hg (1014 hPa)
ob: MKJP 230400Z 34005KT 9999 FEW022 26/20 Q1014
cycle: 4

Station Type Date Time Source
MKJP TAF 2019/04/22 18:15 UTC NOAA

TAF MKJP 221715Z 2218/2318 17008KT 9999 FEW022 PROB40
TEMPO 2219/2223 SHRA BKN018
BECMG 2223/2301 36003KT
BECMG 2314/2316 18008KT

Example: see airport list